Observations for LONDON HEATHROW, United Kingdom (EGLL)

EGLL 201650Z AUTO 26012KT 9999 FEW038 SCT046 23/16 Q1018 NOSIG  
EGLL 201620Z AUTO 25012KT 9999 FEW035 SCT041 25/15 Q1018 NOSIG  
EGLL 201550Z AUTO 24012KT 9999 SCT035 25/16 Q1018 NOSIG 
EGLL 201520Z AUTO 26010KT 9999 BKN035 BKN043 24/16 Q1019 NOSIG  
EGLL 201450Z AUTO 26011KT 9999 SCT033 BKN041 24/15 Q1019 NOSIG  
EGLL 201420Z AUTO 24011KT 200V270 9999 BKN032 25/15 Q1019 NOSIG 
EGLL 201350Z AUTO 24014G24KT 9999 BKN029 25/16 Q1019 NOSIG  
EGLL 201320Z AUTO 23011KT 9999 SCT027 OVC032 23/16 Q1019 NOSIG  
EGLL 201250Z AUTO 24013KT 9999 SCT026 BKN030 24/16 Q1020 NOSIG  
EGLL 201220Z AUTO 24013G26KT 210V270 9999 SCT025 23/16 Q1020 NOSIG  
EGLL 201150Z AUTO 21011KT 180V250 9999 BKN021 BKN026 22/16 Q1020 NOSIG  
EGLL 201120Z AUTO 23011KT 9999 BKN019 BKN024 OVC031 21/15 Q1020 NOSIG   
EGLL 201050Z AUTO 22010KT 180V260 9999 BKN017 OVC022 20/15 Q1021 NOSIG  
EGLL 201020Z AUTO 23010KT 9999 BKN014 OVC020 20/15 Q1021 BECMG SCT020   
EGLL 200950Z AUTO 22009KT 170V250 9999 BKN010 OVC019 18/15 Q1021 BECMG BKN015   
EGLL 200920Z AUTO 22010KT 9999 BKN008 OVC012 17/14 Q1021 BECMG OVC012   
EGLL 200850Z AUTO 22009KT 9999 BKN008 OVC015 17/14 Q1021 BECMG BKN010   
EGLL 200820Z AUTO 22011KT 9999 OVC008 17/14 Q1021 BECMG OV010   
EGLL 200820Z AUTO 22011KT 9999 OVC008 17/14 Q1021 BECMG OVC010
EGLL 200750Z AUTO 23012KT 9999 OVC008 17/14 Q1021 BECMG OVC010  
EGLL 200720Z AUTO 23009KT 9999 BKN006 OVC010 16/15 Q1021 BECMG OVC010   
EGLL 200650Z AUTO 22010KT 190V250 9999 OVC006 16/15 Q1021 NOSIG 
EGLL 200620Z AUTO 23011KT 7000 BKN005 OVC008 15/15 Q1021 NOSIG  
EGLL 200550Z AUTO 22008KT 5000 BR BKN004 OVC007 15/15 Q1021 BECMG BKN007
EGLL 200520Z AUTO 21007KT 200V260 2400 BR BKN002 OVC006 15/15 Q1021 BECMG 5000 BKN004   
EGLL 200450Z 23009KT 3000 BR BKN002 OVC007 15/15 Q1021 BECMG 5000 BKN004
EGLL 200420Z 21008KT 2500 BR FEW001 OVC002 15/15 Q1021 BECMG 4000 BKN004
EGLL 200350Z 21010KT 1100 R27L/P1500 BR SCT001 OVC002 15/14 Q1021 BECMG 1500 BKN002 
EGLL 200320Z 20009KT 0750 R27L/P1500 FG BKN001 OVC002 15/15 Q1021 BECMG 1500 BR BKN002  
EGLL 200250Z 21007KT 1100 BR SCT001 OVC002 15/14 Q1021 TEMPO 1500   
EGLL 200220Z 21005KT 7000 BKN003 15/14 Q1021 BECMG 4000 BR  
EGLL 200150Z AUTO 23006KT 9999 NCD 15/14 Q1022 NOSIG
EGLL 200120Z AUTO 23005KT 9999 NCD 15/14 Q1022 NOSIG
EGLL 200050Z AUTO 22004KT 180V250 9999 NCD 15/14 Q1022 NOSIG
EGLL 200020Z AUTO 22005KT 9999 NCD 16/14 Q1022 NOSIG
EGLL 192350Z AUTO 22006KT 9999 NCD 16/15 Q1022 NOSIG
EGLL 192320Z AUTO 21005KT 9999 NCD 17/15 Q1022 NOSIG
EGLL 192250Z AUTO 21005KT 9999 NCD 17/15 Q1023 NOSIG
EGLL 192220Z AUTO 22006KT 9999 FEW021 BKN042 18/15 Q1023 NOSIG  
EGLL 192150Z AUTO 22007KT 9999 SCT023 BKN042 19/15 Q1023 NOSIG  
EGLL 192120Z AUTO 22007KT 9999 SCT029 BKN042 19/15 Q1023 NOSIG  
EGLL 192050Z AUTO 21009KT 9999 FEW032 SCT039 20/15 Q1022 NOSIG  
EGLL 192020Z AUTO 21008KT 9999 BKN028 BKN036 20/16 Q1022 NOSIG  
EGLL 191950Z AUTO 21010KT 9999 FEW030 21/16 Q1022 NOSIG 
EGLL 191920Z AUTO 21011KT 9999 FEW030 21/16 Q1022 NOSIG 
EGLL 191850Z AUTO 22012G22KT 9999 FEW033 BKN049 22/16 Q1022 NOSIG   
EGLL 191820Z AUTO 23011KT 9999 BKN048 22/16 Q1022 NOSIG 
EGLL 191750Z AUTO 23011KT 200V260 9999 BKN028 BKN040 BKN047 23/16 Q1022 NOSIG   
EGLL 191720Z AUTO 23011KT 9999 SCT030 BKN039 23/16 Q1022 NOSIG  
EGLL 191650Z AUTO 21010KT 180V240 9999 SCT032 OVC043 23/16 Q1022 NOSIG  
EGLL 191620Z AUTO 22010KT 190V250 9999 FEW030 SCT039 BKN048 24/16 Q1022